sensor_id;sensor_type;location;lat;lon;timestamp;pressure;altitude;pressure_sealevel;temperature;humidity
23446;BME280;11895;48.738;9.320;2023-02-28T00:01:28;99495.41;;;1.18;90.96
23446;BME280;11895;48.738;9.320;2023-02-28T00:03:57;99496.28;;;1.25;91.12
23446;BME280;11895;48.738;9.320;2023-02-28T00:06:29;99497.19;;;1.16;91.80
23446;BME280;11895;48.738;9.320;2023-02-28T00:08:57;99497.16;;;1.18;91.70
23446;BME280;11895;48.738;9.320;2023-02-28T00:11:25;99493.63;;;1.23;90.45
23446;BME280;11895;48.738;9.320;2023-02-28T00:13:53;99492.75;;;1.18;89.97
23446;BME280;11895;48.738;9.320;2023-02-28T00:16:23;99494.50;;;1.15;93.30
23446;BME280;11895;48.738;9.320;2023-02-28T00:18:51;99489.19;;;1.09;94.54
23446;BME280;11895;48.738;9.320;2023-02-28T00:21:20;99495.38;;;1.09;90.72
23446;BME280;11895;48.738;9.320;2023-02-28T00:23:48;99491.78;;;0.92;90.76
23446;BME280;11895;48.738;9.320;2023-02-28T00:26:16;99497.16;;;1.10;91.53
23446;BME280;11895;48.738;9.320;2023-02-28T00:28:47;99489.19;;;1.09;90.42
23446;BME280;11895;48.738;9.320;2023-02-28T00:31:15;99490.94;;;1.11;91.06
23446;BME280;11895;48.738;9.320;2023-02-28T00:33:43;99490.97;;;1.17;92.56
23446;BME280;11895;48.738;9.320;2023-02-28T00:36:11;99493.63;;;1.08;89.78
23446;BME280;11895;48.738;9.320;2023-02-28T00:38:39;99500.69;;;1.03;94.38
23446;BME280;11895;48.738;9.320;2023-02-28T00:41:08;99496.25;;;1.11;90.56
23446;BME280;11895;48.738;9.320;2023-02-28T00:43:38;99492.75;;;1.18;92.07
23446;BME280;11895;48.738;9.320;2023-02-28T00:46:07;99491.84;;;1.13;92.16
23446;BME280;11895;48.738;9.320;2023-02-28T00:48:35;99496.28;;;1.13;93.42
23446;BME280;11895;48.738;9.320;2023-02-28T00:51:04;99495.38;;;1.08;93.96
23446;BME280;11895;48.738;9.320;2023-02-28T00:53:32;99491.81;;;1.01;92.77
23446;BME280;11895;48.738;9.320;2023-02-28T00:56:02;99494.50;;;1.09;94.16
23446;BME280;11895;48.738;9.320;2023-02-28T00:58:31;99489.19;;;1.13;91.96
23446;BME280;11895;48.738;9.320;2023-02-28T01:00:59;99488.25;;;0.96;95.84
23446;BME280;11895;48.738;9.320;2023-02-28T01:03:27;99489.19;;;1.07;97.24
23446;BME280;11895;48.738;9.320;2023-02-28T01:05:55;99484.75;;;0.97;95.52
23446;BME280;11895;48.738;9.320;2023-02-28T01:08:23;99485.63;;;0.96;96.93
23446;BME280;11895;48.738;9.320;2023-02-28T01:10:51;99482.94;;;0.90;96.59
23446;BME280;11895;48.738;9.320;2023-02-28T01:13:19;99490.06;;;0.97;98.44
23446;BME280;11895;48.738;9.320;2023-02-28T01:15:52;99489.16;;;0.93;100.00
23446;BME280;11895;48.738;9.320;2023-02-28T01:18:22;99485.56;;;0.81;100.00
23446;BME280;11895;48.738;9.320;2023-02-28T01:20:50;99490.00;;;0.85;100.00
23446;BME280;11895;48.738;9.320;2023-02-28T01:23:20;99481.16;;;0.92;100.00
23446;BME280;11895;48.738;9.320;2023-02-28T01:25:51;99482.94;;;0.84;100.00
23446;BME280;11895;48.738;9.320;2023-02-28T01:28:19;99481.13;;;0.73;100.00
23446;BME280;11895;48.738;9.320;2023-02-28T01:30:50;99479.38;;;0.82;100.00
23446;BME280;11895;48.738;9.320;2023-02-28T01:33:19;99477.59;;;0.68;100.00
23446;BME280;11895;48.738;9.320;2023-02-28T01:35:46;99472.34;;;0.84;100.00
23446;BME280;11895;48.738;9.320;2023-02-28T01:38:14;99475.88;;;0.92;100.00
23446;BME280;11895;48.738;9.320;2023-02-28T01:40:49;99480.31;;;0.94;100.00
23446;BME280;11895;48.738;9.320;2023-02-28T01:46:00;99484.69;;;0.79;100.00
23446;BME280;11895;48.738;9.320;2023-02-28T01:48:37;99482.06;;;0.91;100.00
23446;BME280;11895;48.738;9.320;2023-02-28T01:51:22;99475.88;;;0.95;100.00
23446;BME280;11895;48.738;9.320;2023-02-28T01:54:00;99477.66;;;0.90;100.00
23446;BME280;11895;48.738;9.320;2023-02-28T01:56:34;99469.66;;;0.85;100.00
23446;BME280;11895;48.738;9.320;2023-02-28T01:59:05;99467.91;;;0.86;100.00
23446;BME280;11895;48.738;9.320;2023-02-28T02:01:33;99459.06;;;0.87;100.00
23446;BME280;11895;48.738;9.320;2023-02-28T02:04:04;99452.91;;;0.88;100.00
23446;BME280;11895;48.738;9.320;2023-02-28T02:06:40;99457.34;;;0.99;100.00
23446;BME280;11895;48.738;9.320;2023-02-28T02:09:11;99458.22;;;1.06;100.00
23446;BME280;11895;48.738;9.320;2023-02-28T02:11:42;99455.59;;;1.03;100.00
23446;BME280;11895;48.738;9.320;2023-02-28T02:38:14;99437.03;;;1.21;100.00
23446;BME280;11895;48.738;9.320;2023-02-28T02:40:52;99437.91;;;1.17;100.00
23446;BME280;11895;48.738;9.320;2023-02-28T02:43:32;99432.63;;;1.36;100.00
23446;BME280;11895;48.738;9.320;2023-02-28T02:46:49;99434.38;;;1.26;100.00
23446;BME280;11895;48.738;9.320;2023-02-28T02:49:02;99433.50;;;1.38;100.00
23446;BME280;11895;48.738;9.320;2023-02-28T02:51:35;99441.44;;;1.35;100.00
23446;BME280;11895;48.738;9.320;2023-02-28T02:54:10;99438.81;;;1.41;100.00
23446;BME280;11895;48.738;9.320;2023-02-28T02:57:01;99436.16;;;1.47;100.00
23446;BME280;11895;48.738;9.320;2023-02-28T02:59:32;99431.72;;;1.43;100.00
23446;BME280;11895;48.738;9.320;2023-02-28T03:02:06;99431.72;;;1.43;100.00
23446;BME280;11895;48.738;9.320;2023-02-28T03:04:46;99437.03;;;1.40;100.00
23446;BME280;11895;48.738;9.320;2023-02-28T03:07:18;99437.03;;;1.38;100.00
23446;BME280;11895;48.738;9.320;2023-02-28T03:09:52;99433.50;;;1.38;100.00
23446;BME280;11895;48.738;9.320;2023-02-28T03:12:24;99439.69;;;1.29;100.00
23446;BME280;11895;48.738;9.320;2023-02-28T03:15:23;99448.56;;;1.46;100.00
23446;BME280;11895;48.738;9.320;2023-02-28T03:18:10;99437.91;;;1.59;100.00
23446;BME280;11895;48.738;9.320;2023-02-28T03:26:40;99443.25;;;1.46;100.00
23446;BME280;11895;48.738;9.320;2023-02-28T03:29:16;99446.78;;;1.45;100.00
23446;BME280;11895;48.738;9.320;2023-02-28T03:31:59;99444.13;;;1.41;100.00
23446;BME280;11895;48.738;9.320;2023-02-28T03:34:39;99442.34;;;1.43;100.00
23446;BME280;11895;48.738;9.320;2023-02-28T03:37:11;99442.34;;;1.52;100.00
23446;BME280;11895;48.738;9.320;2023-02-28T03:39:43;99443.22;;;1.33;100.00
23446;BME280;11895;48.738;9.320;2023-02-28T03:42:23;99437.94;;;1.40;100.00
23446;BME280;11895;48.738;9.320;2023-02-28T03:44:56;99430.84;;;1.41;100.00
23446;BME280;11895;48.738;9.320;2023-02-28T03:50:22;99432.63;;;1.33;100.00
23446;BME280;11895;48.738;9.320;2023-02-28T03:52:58;99435.28;;;1.42;100.00
23446;BME280;11895;48.738;9.320;2023-02-28T03:55:42;99433.50;;;1.58;100.00
23446;BME280;11895;48.738;9.320;2023-02-28T03:58:29;99435.25;;;1.54;100.00
23446;BME280;11895;48.738;9.320;2023-02-28T04:01:23;99436.13;;;1.35;100.00
23446;BME280;11895;48.738;9.320;2023-02-28T04:04:25;99423.72;;;1.69;100.00
23446;BME280;11895;48.738;9.320;2023-02-28T04:07:06;99426.41;;;1.70;100.00
23446;BME280;11895;48.738;9.320;2023-02-28T04:09:35;99436.13;;;1.59;100.00
23446;BME280;11895;48.738;9.320;2023-02-28T04:12:03;99445.91;;;1.60;100.00
23446;BME280;11895;48.738;9.320;2023-02-28T04:14:31;99439.69;;;1.84;100.00
23446;BME280;11895;48.738;9.320;2023-02-28T04:16:58;99441.47;;;1.38;100.00
23446;BME280;11895;48.738;9.320;2023-02-28T04:19:26;99437.91;;;1.71;100.00
23446;BME280;11895;48.738;9.320;2023-02-28T04:21:54;99447.63;;;1.83;100.00
23446;BME280;11895;48.738;9.320;2023-02-28T04:24:24;99438.81;;;1.61;100.00
23446;BME280;11895;48.738;9.320;2023-02-28T04:26:55;99443.19;;;1.82;100.00
23446;BME280;11895;48.738;9.320;2023-02-28T04:29:30;99442.31;;;1.89;100.00
23446;BME280;11895;48.738;9.320;2023-02-28T04:32:01;99441.47;;;1.33;100.00
23446;BME280;11895;48.738;9.320;2023-02-28T04:34:31;99440.53;;;1.82;100.00
23446;BME280;11895;48.738;9.320;2023-02-28T04:36:59;99436.16;;;1.58;100.00
23446;BME280;11895;48.738;9.320;2023-02-28T04:39:40;99438.81;;;1.74;100.00
23446;BME280;11895;48.738;9.320;2023-02-28T04:42:10;99433.47;;;1.87;100.00
23446;BME280;11895;48.738;9.320;2023-02-28T04:44:38;99435.22;;;1.88;100.00
23446;BME280;11895;48.738;9.320;2023-02-28T04:47:06;99434.34;;;1.87;100.00
23446;BME280;11895;48.738;9.320;2023-02-28T04:49:34;99440.53;;;1.88;100.00
23446;BME280;11895;48.738;9.320;2023-02-28T04:52:02;99432.56;;;1.95;100.00
23446;BME280;11895;48.738;9.320;2023-02-28T04:54:29;99438.75;;;1.96;100.00
23446;BME280;11895;48.738;9.320;2023-02-28T04:56:57;99436.13;;;1.71;100.00
23446;BME280;11895;48.738;9.320;2023-02-28T04:59:25;99444.06;;;1.93;100.00
23446;BME280;11895;48.738;9.320;2023-02-28T05:01:52;99440.53;;;1.88;100.00
23446;BME280;11895;48.738;9.320;2023-02-28T05:04:20;99442.28;;;2.04;100.00
23446;BME280;11895;48.738;9.320;2023-02-28T05:06:48;99439.69;;;1.75;100.00
23446;BME280;11895;48.738;9.320;2023-02-28T05:09:40;99442.31;;;1.92;100.00
23446;BME280;11895;48.738;9.320;2023-02-28T05:12:09;99444.97;;;1.89;100.00
23446;BME280;11895;48.738;9.320;2023-02-28T05:14:40;99444.97;;;1.87;100.00
23446;BME280;11895;48.738;9.320;2023-02-28T05:17:09;99445.81;;;2.09;100.00
23446;BME280;11895;48.738;9.320;2023-02-28T05:19:37;99436.09;;;2.08;100.00
23446;BME280;11895;48.738;9.320;2023-02-28T05:22:10;99438.75;;;1.99;100.00
23446;BME280;11895;48.738;9.320;2023-02-28T05:24:41;99443.16;;;2.08;100.00
23446;BME280;11895;48.738;9.320;2023-02-28T05:27:10;99453.75;;;2.20;100.00
23446;BME280;11895;48.738;9.320;2023-02-28T05:29:37;99458.22;;;2.13;100.00
23446;BME280;11895;48.738;9.320;2023-02-28T05:32:10;99452.88;;;2.07;100.00
23446;BME280;11895;48.738;9.320;2023-02-28T05:34:39;99446.75;;;1.68;100.00
23446;BME280;11895;48.738;9.320;2023-02-28T05:37:12;99446.72;;;1.91;100.00
23446;BME280;11895;48.738;9.320;2023-02-28T05:39:40;99444.94;;;2.01;100.00
23446;BME280;11895;48.738;9.320;2023-02-28T05:42:08;99459.16;;;1.59;100.00
23446;BME280;11895;48.738;9.320;2023-02-28T05:44:36;99452.03;;;1.96;100.00
23446;BME280;11895;48.738;9.320;2023-02-28T05:47:04;99457.34;;;2.10;100.00
23446;BME280;11895;48.738;9.320;2023-02-28T05:49:31;99465.28;;;2.23;100.00
23446;BME280;11895;48.738;9.320;2023-02-28T05:51:59;99459.94;;;2.33;100.00
23446;BME280;11895;48.738;9.320;2023-02-28T05:54:27;99458.13;;;2.42;100.00
23446;BME280;11895;48.738;9.320;2023-02-28T05:56:54;99459.13;;;1.95;100.00
23446;BME280;11895;48.738;9.320;2023-02-28T05:59:22;99462.59;;;2.22;100.00
23446;BME280;11895;48.738;9.320;2023-02-28T06:01:50;99463.47;;;2.22;100.00
23446;BME280;11895;48.738;9.320;2023-02-28T06:04:20;99471.50;;;2.15;100.00
23446;BME280;11895;48.738;9.320;2023-02-28T06:06:58;99466.16;;;2.16;100.00
23446;BME280;11895;48.738;9.320;2023-02-28T06:09:26;99464.38;;;2.17;100.00
23446;BME280;11895;48.738;9.320;2023-02-28T06:11:54;99469.72;;;2.15;100.00
23446;BME280;11895;48.738;9.320;2023-02-28T06:14:21;99463.56;;;2.04;100.00
23446;BME280;11895;48.738;9.320;2023-02-28T06:16:49;99467.03;;;2.27;100.00
23446;BME280;11895;48.738;9.320;2023-02-28T06:19:17;99470.59;;;2.20;100.00
23446;BME280;11895;48.738;9.320;2023-02-28T06:21:44;99470.59;;;2.23;100.00
23446;BME280;11895;48.738;9.320;2023-02-28T06:24:12;99469.69;;;2.24;100.00
23446;BME280;11895;48.738;9.320;2023-02-28T06:26:40;99475.00;;;2.27;100.00
23446;BME280;11895;48.738;9.320;2023-02-28T06:29:07;99477.69;;;2.03;100.00
23446;BME280;11895;48.738;9.320;2023-02-28T06:31:35;99481.25;;;1.96;100.00
23446;BME280;11895;48.738;9.320;2023-02-28T06:34:03;99482.09;;;2.22;100.00
23446;BME280;11895;48.738;9.320;2023-02-28T06:36:31;99490.97;;;2.27;100.00
23446;BME280;11895;48.738;9.320;2023-02-28T06:38:58;99483.75;;;2.55;100.00
23446;BME280;11895;48.738;9.320;2023-02-28T06:41:26;99492.59;;;2.68;100.00
23446;BME280;11895;48.738;9.320;2023-02-28T06:43:55;99497.03;;;2.60;100.00
23446;BME280;11895;48.738;9.320;2023-02-28T06:46:23;99498.88;;;2.52;100.00
23446;BME280;11895;48.738;9.320;2023-02-28T06:48:51;99490.13;;;1.76;100.00
23446;BME280;11895;48.738;9.320;2023-02-28T06:51:20;99492.75;;;2.10;100.00
23446;BME280;11895;48.738;9.320;2023-02-28T06:53:50;99499.84;;;1.93;100.00
23446;BME280;11895;48.738;9.320;2023-02-28T06:56:19;99494.50;;;2.20;100.00
23446;BME280;11895;48.738;9.320;2023-02-28T06:58:48;99502.53;;;1.77;100.00
23446;BME280;11895;48.738;9.320;2023-02-28T07:01:17;99495.44;;;2.13;100.00
23446;BME280;11895;48.738;9.320;2023-02-28T07:03:46;99506.03;;;2.19;100.00
23446;BME280;11895;48.738;9.320;2023-02-28T07:06:14;99498.03;;;2.21;100.00
23446;BME280;11895;48.738;9.320;2023-02-28T07:08:45;99507.72;;;2.51;100.00
23446;BME280;11895;48.738;9.320;2023-02-28T07:11:13;99509.53;;;2.30;100.00
23446;BME280;11895;48.738;9.320;2023-02-28T07:13:41;99505.94;;;2.50;100.00
23446;BME280;11895;48.738;9.320;2023-02-28T07:16:10;99513.00;;;2.66;100.00
23446;BME280;11895;48.738;9.320;2023-02-28T07:18:38;99516.69;;;1.76;100.00
23446;BME280;11895;48.738;9.320;2023-02-28T07:21:08;99511.38;;;1.86;100.00
23446;BME280;11895;48.738;9.320;2023-02-28T07:23:38;99514.03;;;2.18;100.00
23446;BME280;11895;48.738;9.320;2023-02-28T07:26:07;99516.66;;;2.19;100.00
23446;BME280;11895;48.738;9.320;2023-02-28T07:28:38;99523.66;;;2.58;100.00
23446;BME280;11895;48.738;9.320;2023-02-28T07:31:07;99520.22;;;2.03;100.00
23446;BME280;11895;48.738;9.320;2023-02-28T07:33:36;99514.00;;;2.16;100.00
23446;BME280;11895;48.738;9.320;2023-02-28T07:36:06;99522.00;;;2.01;100.00
23446;BME280;11895;48.738;9.320;2023-02-28T07:38:36;99522.81;;;2.43;100.00
23446;BME280;11895;48.738;9.320;2023-02-28T07:41:04;99519.16;;;2.82;100.00
23446;BME280;11895;48.738;9.320;2023-02-28T07:43:33;99521.00;;;2.57;100.00
23446;BME280;11895;48.738;9.320;2023-02-28T07:46:09;99528.19;;;2.01;100.00
23446;BME280;11895;48.738;9.320;2023-02-28T07:48:39;99527.31;;;1.72;100.00
23446;BME280;11895;48.738;9.320;2023-02-28T07:51:07;99520.22;;;2.18;100.00
23446;BME280;11895;48.738;9.320;2023-02-28T07:53:34;99519.28;;;2.44;100.00
23446;BME280;11895;48.738;9.320;2023-02-28T07:56:03;99529.03;;;2.48;100.00
23446;BME280;11895;48.738;9.320;2023-02-28T07:58:31;99534.19;;;2.91;100.00
23446;BME280;11895;48.738;9.320;2023-02-28T08:01:06;99522.69;;;2.75;100.00
23446;BME280;11895;48.738;9.320;2023-02-28T08:03:38;99521.84;;;2.65;100.00
23446;BME280;11895;48.738;9.320;2023-02-28T08:06:19;99531.44;;;3.11;100.00
23446;BME280;11895;48.738;9.320;2023-02-28T08:08:50;99533.22;;;3.10;100.00
23446;BME280;11895;48.738;9.320;2023-02-28T08:11:18;99528.72;;;3.20;98.89
23446;BME280;11895;48.738;9.320;2023-02-28T08:13:46;99541.16;;;3.16;100.00
23446;BME280;11895;48.738;9.320;2023-02-28T08:16:14;99542.75;;;3.49;98.25
23446;BME280;11895;48.738;9.320;2023-02-28T08:18:52;99538.53;;;3.07;98.96
23446;BME280;11895;48.738;9.320;2023-02-28T08:21:21;99541.00;;;3.48;97.13
23446;BME280;11895;48.738;9.320;2023-02-28T08:23:50;99537.41;;;3.54;98.64
23446;BME280;11895;48.738;9.320;2023-02-28T08:26:19;99539.94;;;3.71;95.14
23446;BME280;11895;48.738;9.320;2023-02-28T08:28:47;99541.53;;;3.93;91.71
23446;BME280;11895;48.738;9.320;2023-02-28T08:31:16;99545.16;;;3.81;90.40
23446;BME280;11895;48.738;9.320;2023-02-28T08:33:45;99535.50;;;3.73;92.38
23446;BME280;11895;48.738;9.320;2023-02-28T08:36:13;99538.31;;;3.50;98.81
23446;BME280;11895;48.738;9.320;2023-02-28T08:38:41;99530.97;;;3.79;93.48
23446;BME280;11895;48.738;9.320;2023-02-28T08:41:12;99542.75;;;3.48;95.57
23446;BME280;11895;48.738;9.320;2023-02-28T08:43:40;99537.09;;;3.91;98.12
23446;BME280;11895;48.738;9.320;2023-02-28T08:46:11;99539.78;;;3.89;95.14
23446;BME280;11895;48.738;9.320;2023-02-28T08:48:40;99536.84;;;4.21;87.80
23446;BME280;11895;48.738;9.320;2023-02-28T08:51:12;99543.50;;;3.70;90.98
23446;BME280;11895;48.738;9.320;2023-02-28T08:53:43;99540.78;;;3.77;92.77
23446;BME280;11895;48.738;9.320;2023-02-28T08:56:17;99542.41;;;3.94;93.40
23446;BME280;11895;48.738;9.320;2023-02-28T08:58:46;99535.13;;;4.14;90.36
23446;BME280;11895;48.738;9.320;2023-02-28T09:01:23;99536.19;;;3.95;87.43
23446;BME280;11895;48.738;9.320;2023-02-28T09:03:55;99537.63;;;4.32;87.15
23446;BME280;11895;48.738;9.320;2023-02-28T09:06:26;99544.94;;;4.10;85.51
23446;BME280;11895;48.738;9.320;2023-02-28T09:08:57;99550.06;;;3.15;97.36
23446;BME280;11895;48.738;9.320;2023-02-28T09:11:26;99550.47;;;3.86;91.63
23446;BME280;11895;48.738;9.320;2023-02-28T09:13:55;99544.88;;;4.15;93.52
23446;BME280;11895;48.738;9.320;2023-02-28T09:16:30;99547.31;;;4.39;88.18
23446;BME280;11895;48.738;9.320;2023-02-28T09:19:00;99548.94;;;4.56;83.58
23446;BME280;11895;48.738;9.320;2023-02-28T09:21:29;99553.16;;;3.81;91.27
23446;BME280;11895;48.738;9.320;2023-02-28T09:23:57;99556.81;;;3.73;93.62
23446;BME280;11895;48.738;9.320;2023-02-28T09:26:26;99551.31;;;3.93;89.01
23446;BME280;11895;48.738;9.320;2023-02-28T09:29:09;99555.38;;;4.35;85.41
23446;BME280;11895;48.738;9.320;2023-02-28T09:31:38;99549.59;;;4.79;83.97
23446;BME280;11895;48.738;9.320;2023-02-28T09:34:06;99552.06;;;4.95;82.75
23446;BME280;11895;48.738;9.320;2023-02-28T09:36:34;99550.63;;;4.63;80.16
23446;BME280;11895;48.738;9.320;2023-02-28T09:39:13;99559.38;;;4.79;80.28
23446;BME280;11895;48.738;9.320;2023-02-28T09:41:45;99562.84;;;4.85;78.10
23446;BME280;11895;48.738;9.320;2023-02-28T09:44:41;99556.44;;;5.03;78.33
23446;BME280;11895;48.738;9.320;2023-02-28T09:47:38;99564.19;;;5.20;75.07
23446;BME280;11895;48.738;9.320;2023-02-28T09:52:56;99567.25;;;5.59;80.13
23446;BME280;11895;48.738;9.320;2023-02-28T09:55:44;99549.34;;;5.64;70.09
23446;BME280;11895;48.738;9.320;2023-02-28T09:58:20;99557.97;;;5.83;70.11
23446;BME280;11895;48.738;9.320;2023-02-28T10:01:00;99561.19;;;5.45;69.43
23446;BME280;11895;48.738;9.320;2023-02-28T10:03:40;99564.69;;;4.80;75.64
23446;BME280;11895;48.738;9.320;2023-02-28T10:09:02;99566.63;;;6.02;65.94
23446;BME280;11895;48.738;9.320;2023-02-28T10:11:34;99566.41;;;6.14;67.16
23446;BME280;11895;48.738;9.320;2023-02-28T10:14:10;99568.75;;;5.75;64.88
23446;BME280;11895;48.738;9.320;2023-02-28T10:22:52;99576.41;;;5.39;64.80
23446;BME280;11895;48.738;9.320;2023-02-28T10:25:26;99585.09;;;5.57;70.20
23446;BME280;11895;48.738;9.320;2023-02-28T10:28:08;99578.78;;;6.21;63.00
23446;BME280;11895;48.738;9.320;2023-02-28T10:30:45;99582.97;;;5.80;59.32
23446;BME280;11895;48.738;9.320;2023-02-28T10:33:28;99589.13;;;5.85;61.71
23446;BME280;11895;48.738;9.320;2023-02-28T10:35:59;99573.81;;;6.00;61.88
23446;BME280;11895;48.738;9.320;2023-02-28T10:38:35;99582.25;;;6.76;59.47
23446;BME280;11895;48.738;9.320;2023-02-28T10:41:07;99579.41;;;6.37;58.91
23446;BME280;11895;48.738;9.320;2023-02-28T10:43:38;99575.84;;;6.84;56.67
23446;BME280;11895;48.738;9.320;2023-02-28T10:48:47;99564.03;;;6.94;55.84
23446;BME280;11895;48.738;9.320;2023-02-28T10:51:38;99565.78;;;7.40;56.63
23446;BME280;11895;48.738;9.320;2023-02-28T10:54:18;99561.72;;;8.00;54.37
23446;BME280;11895;48.738;9.320;2023-02-28T10:59:36;99557.72;;;8.16;50.16
23446;BME280;11895;48.738;9.320;2023-02-28T11:02:34;99561.75;;;8.34;49.34
23446;BME280;11895;48.738;9.320;2023-02-28T11:05:25;99563.25;;;9.13;49.24
23446;BME280;11895;48.738;9.320;2023-02-28T11:08:16;99567.47;;;8.90;47.70
23446;BME280;11895;48.738;9.320;2023-02-28T11:10:47;99568.09;;;9.00;48.01
23446;BME280;11895;48.738;9.320;2023-02-28T11:13:27;99563.22;;;8.82;47.51
23446;BME280;11895;48.738;9.320;2023-02-28T11:16:00;99556.94;;;8.83;46.78
23446;BME280;11895;48.738;9.320;2023-02-28T11:21:23;99553.59;;;9.06;50.08
23446;BME280;11895;48.738;9.320;2023-02-28T11:24:02;99554.84;;;9.55;46.31
23446;BME280;11895;48.738;9.320;2023-02-28T11:26:41;99542.94;;;8.70;46.04
23446;BME280;11895;48.738;9.320;2023-02-28T11:29:17;99538.50;;;9.31;47.22
23446;BME280;11895;48.738;9.320;2023-02-28T11:32:17;99541.34;;;8.95;46.43
23446;BME280;11895;48.738;9.320;2023-02-28T11:35:03;99535.81;;;9.31;47.84
23446;BME280;11895;48.738;9.320;2023-02-28T11:37:32;99538.25;;;9.40;46.13
23446;BME280;11895;48.738;9.320;2023-02-28T11:40:00;99532.75;;;9.73;43.87
23446;BME280;11895;48.738;9.320;2023-02-28T11:42:54;99534.19;;;8.96;46.58
23446;BME280;11895;48.738;9.320;2023-02-28T11:51:21;99527.66;;;9.64;43.52
23446;BME280;11895;48.738;9.320;2023-02-28T12:13:59;99517.78;;;9.92;44.29
23446;BME280;11895;48.738;9.320;2023-02-28T12:23:02;99516.25;;;10.38;42.47
23446;BME280;11895;48.738;9.320;2023-02-28T12:25:48;99503.34;;;11.21;41.67
23446;BME280;11895;48.738;9.320;2023-02-28T12:28:24;99502.19;;;11.50;40.92
23446;BME280;11895;48.738;9.320;2023-02-28T12:31:06;99499.50;;;11.50;40.31
23446;BME280;11895;48.738;9.320;2023-02-28T12:33:56;99499.13;;;12.88;38.17
23446;BME280;11895;48.738;9.320;2023-02-28T12:36:28;99498.59;;;13.58;36.46
23446;BME280;11895;48.738;9.320;2023-02-28T12:44:52;99491.63;;;14.96;34.61
23446;BME280;11895;48.738;9.320;2023-02-28T12:47:23;99493.94;;;15.04;33.60
23446;BME280;11895;48.738;9.320;2023-02-28T12:52:47;99478.69;;;16.13;31.69
23446;BME280;11895;48.738;9.320;2023-02-28T12:58:37;99478.91;;;13.55;35.24
23446;BME280;11895;48.738;9.320;2023-02-28T13:07:36;99470.47;;;16.15;31.77
23446;BME280;11895;48.738;9.320;2023-02-28T13:10:20;99461.22;;;15.87;32.86
23446;BME280;11895;48.738;9.320;2023-02-28T13:12:53;99463.19;;;16.76;32.97
23446;BME280;11895;48.738;9.320;2023-02-28T13:15:27;99468.69;;;18.30;30.92
23446;BME280;11895;48.738;9.320;2023-02-28T13:18:02;99451.94;;;18.61;27.43
23446;BME280;11895;48.738;9.320;2023-02-28T13:20:36;99465.03;;;19.21;28.53
23446;BME280;11895;48.738;9.320;2023-02-28T13:23:39;99459.91;;;19.17;27.12
23446;BME280;11895;48.738;9.320;2023-02-28T13:29:01;99467.44;;;16.05;30.33
23446;BME280;11895;48.738;9.320;2023-02-28T13:31:32;99454.69;;;16.66;29.94
23446;BME280;11895;48.738;9.320;2023-02-28T13:34:05;99456.91;;;17.61;28.60
23446;BME280;11895;48.738;9.320;2023-02-28T13:36:40;99454.88;;;16.03;30.07
23446;BME280;11895;48.738;9.320;2023-02-28T13:47:33;99456.75;;;19.72;26.28
23446;BME280;11895;48.738;9.320;2023-02-28T14:05:16;99449.38;;;19.49;26.33
23446;BME280;11895;48.738;9.320;2023-02-28T14:07:52;99444.16;;;20.31;24.96
23446;BME280;11895;48.738;9.320;2023-02-28T14:10:30;99445.84;;;20.68;25.49
23446;BME280;11895;48.738;9.320;2023-02-28T14:16:14;99439.13;;;20.13;24.59
23446;BME280;11895;48.738;9.320;2023-02-28T14:19:02;99443.03;;;19.61;25.86
23446;BME280;11895;48.738;9.320;2023-02-28T14:21:40;99447.28;;;20.96;25.64
23446;BME280;11895;48.738;9.320;2023-02-28T14:33:48;99456.84;;;19.21;25.85
23446;BME280;11895;48.738;9.320;2023-02-28T14:36:39;99452.44;;;20.42;24.91
23446;BME280;11895;48.738;9.320;2023-02-28T14:41:47;99467.22;;;19.04;27.10
23446;BME280;11895;48.738;9.320;2023-02-28T14:44:36;99451.47;;;15.99;28.72
23446;BME280;11895;48.738;9.320;2023-02-28T14:47:03;99462.44;;;17.31;29.07
23446;BME280;11895;48.738;9.320;2023-02-28T14:49:43;99453.13;;;19.22;27.08
23446;BME280;11895;48.738;9.320;2023-02-28T14:52:20;99450.44;;;19.59;25.83
23446;BME280;11895;48.738;9.320;2023-02-28T14:55:18;99451.91;;;17.82;26.24
23446;BME280;11895;48.738;9.320;2023-02-28T14:58:02;99461.09;;;17.09;28.26
23446;BME280;11895;48.738;9.320;2023-02-28T15:00:36;99452.16;;;16.93;28.33
23446;BME280;11895;48.738;9.320;2023-02-28T15:03:27;99466.16;;;14.99;30.94
23446;BME280;11895;48.738;9.320;2023-02-28T15:06:01;99470.13;;;15.58;30.68
23446;BME280;11895;48.738;9.320;2023-02-28T15:08:31;99464.34;;;16.72;29.15
23446;BME280;11895;48.738;9.320;2023-02-28T15:11:16;99470.16;;;16.65;29.15
23446;BME280;11895;48.738;9.320;2023-02-28T15:13:55;99461.16;;;15.40;29.80
23446;BME280;11895;48.738;9.320;2023-02-28T15:16:40;99470.66;;;17.16;29.13
23446;BME280;11895;48.738;9.320;2023-02-28T15:19:27;99467.31;;;17.26;28.31
23446;BME280;11895;48.738;9.320;2023-02-28T15:22:13;99467.97;;;14.11;31.71
23446;BME280;11895;48.738;9.320;2023-02-28T15:24:50;99475.41;;;15.28;31.41
23446;BME280;11895;48.738;9.320;2023-02-28T15:27:28;99466.97;;;16.43;29.33
23446;BME280;11895;48.738;9.320;2023-02-28T15:30:20;99471.59;;;17.01;28.71
23446;BME280;11895;48.738;9.320;2023-02-28T15:33:23;99467.63;;;16.92;28.75
23446;BME280;11895;48.738;9.320;2023-02-28T15:38:52;99473.16;;;17.05;28.29
23446;BME280;11895;48.738;9.320;2023-02-28T15:41:30;99473.94;;;13.65;32.44
23446;BME280;11895;48.738;9.320;2023-02-28T15:44:26;99481.00;;;15.74;30.71
23446;BME280;11895;48.738;9.320;2023-02-28T15:50:12;99470.72;;;16.56;29.51
23446;BME280;11895;48.738;9.320;2023-02-28T15:52:45;99470.53;;;16.59;29.24
23446;BME280;11895;48.738;9.320;2023-02-28T15:55:23;99476.94;;;15.33;29.97
23446;BME280;11895;48.738;9.320;2023-02-28T15:57:55;99467.47;;;12.90;33.18
23446;BME280;11895;48.738;9.320;2023-02-28T16:00:30;99477.78;;;14.68;32.19
23446;BME280;11895;48.738;9.320;2023-02-28T16:02:59;99474.91;;;14.00;32.10
23446;BME280;11895;48.738;9.320;2023-02-28T16:05:29;99476.22;;;14.79;32.33
23446;BME280;11895;48.738;9.320;2023-02-28T16:08:06;99468.06;;;15.30;31.30
23446;BME280;11895;48.738;9.320;2023-02-28T16:10:40;99471.72;;;14.80;31.81
23446;BME280;11895;48.738;9.320;2023-02-28T16:13:12;99478.34;;;14.57;32.12